createdAt,value
2022-12-25T00:02:08.227Z,2.03
2022-12-25T00:04:37.981Z,2.70
2022-12-25T00:07:07.463Z,1.90
2022-12-25T00:09:37.226Z,2.10
2022-12-25T00:12:07.134Z,2.30
2022-12-25T00:14:36.876Z,2.47
2022-12-25T00:17:06.570Z,2.13
2022-12-25T00:19:36.490Z,1.73
2022-12-25T00:22:06.749Z,2.40
2022-12-25T00:24:36.503Z,1.60
2022-12-25T00:27:07.059Z,2.33
2022-12-25T00:29:37.388Z,2.00
2022-12-25T00:32:07.257Z,3.63
2022-12-25T00:34:37.075Z,2.40
2022-12-25T00:37:06.714Z,2.10
2022-12-25T00:39:36.537Z,1.87
2022-12-25T00:42:21.572Z,2.50
2022-12-25T00:44:52.161Z,2.80
2022-12-25T00:47:21.747Z,1.70
2022-12-25T00:49:51.865Z,2.22
2022-12-25T00:52:21.436Z,1.27
2022-12-25T00:54:51.197Z,1.77
2022-12-25T00:57:20.885Z,1.10
2022-12-25T00:59:50.699Z,2.03
2022-12-25T01:02:26.511Z,2.03
2022-12-25T01:04:57.970Z,2.87
2022-12-25T01:07:28.165Z,1.77
2022-12-25T01:10:15.443Z,2.80
2022-12-25T01:12:45.452Z,2.17
2022-12-25T01:15:15.784Z,2.47
2022-12-25T01:17:46.252Z,1.60
2022-12-25T01:20:17.855Z,2.50
2022-12-25T01:22:47.764Z,1.93
2022-12-25T01:25:17.649Z,2.70
2022-12-25T01:27:47.439Z,2.83
2022-12-25T01:30:17.103Z,2.87
2022-12-25T01:32:46.855Z,2.53
2022-12-25T01:35:16.409Z,2.60
2022-12-25T01:37:46.264Z,2.53
2022-12-25T01:40:15.871Z,3.37
2022-12-25T01:42:45.886Z,2.60
2022-12-25T01:45:37.054Z,3.43
2022-12-25T01:48:09.973Z,2.10
2022-12-25T01:50:42.525Z,3.43
2022-12-25T01:53:12.699Z,2.50
2022-12-25T01:55:45.167Z,3.30
2022-12-25T01:58:15.264Z,2.98
2022-12-25T02:00:45.302Z,3.50
2022-12-25T02:03:15.347Z,3.60
2022-12-25T02:05:46.920Z,3.67
2022-12-25T02:08:19.394Z,3.80
2022-12-25T02:10:49.517Z,3.90
2022-12-25T02:13:20.665Z,2.85
2022-12-25T02:16:02.105Z,2.27
2022-12-25T02:18:46.830Z,2.40
2022-12-25T02:21:34.346Z,2.67
2022-12-25T02:24:09.716Z,2.23
2022-12-25T02:27:15.606Z,3.10
2022-12-25T02:29:48.091Z,2.40
2022-12-25T02:32:32.570Z,3.10
2022-12-25T02:35:08.166Z,2.43
2022-12-25T02:37:45.385Z,2.25
2022-12-25T02:40:17.939Z,2.43
2022-12-25T02:43:11.191Z,2.07
2022-12-25T02:46:17.299Z,2.70
2022-12-25T02:49:03.518Z,2.40
2022-12-25T02:51:54.174Z,4.10
2022-12-25T02:54:47.328Z,3.13
2022-12-25T02:57:37.431Z,2.52
2022-12-25T03:00:27.604Z,2.50
2022-12-25T03:03:18.001Z,2.63
2022-12-25T03:06:06.025Z,2.03
2022-12-25T03:08:41.062Z,2.63
2022-12-25T03:11:31.975Z,2.48
2022-12-25T03:14:27.617Z,2.25
2022-12-25T03:16:59.977Z,2.37
2022-12-25T03:19:53.202Z,1.90
2022-12-25T03:22:49.165Z,2.37
2022-12-25T03:25:37.757Z,2.30
2022-12-25T03:28:07.887Z,1.47
2022-12-25T03:31:04.931Z,2.12
2022-12-25T03:33:52.691Z,1.70
2022-12-25T03:36:34.128Z,2.08
2022-12-25T03:39:23.372Z,1.85
2022-12-25T03:42:14.005Z,1.60
2022-12-25T03:44:53.884Z,2.10
2022-12-25T03:48:02.596Z,2.00
2022-12-25T03:50:53.302Z,2.17
2022-12-25T03:53:44.131Z,1.70
2022-12-25T03:56:32.605Z,1.72
2022-12-25T03:59:23.922Z,2.30
2022-12-25T04:02:10.162Z,1.90
2022-12-25T04:04:58.100Z,1.57
2022-12-25T04:07:45.365Z,1.53
2022-12-25T04:10:32.787Z,1.33
2022-12-25T04:13:20.834Z,1.70
2022-12-25T04:16:10.358Z,2.13
2022-12-25T04:18:58.270Z,2.53
2022-12-25T04:21:46.105Z,1.70
2022-12-25T04:24:33.436Z,2.03
2022-12-25T04:27:21.236Z,1.37
2022-12-25T04:30:08.846Z,1.27
2022-12-25T04:32:56.734Z,1.37
2022-12-25T04:35:44.049Z,1.27
2022-12-25T04:38:13.927Z,1.25
2022-12-25T04:40:43.663Z,1.33
2022-12-25T04:43:13.161Z,1.20
2022-12-25T04:45:42.914Z,1.33
2022-12-25T04:48:12.399Z,2.07
2022-12-25T04:50:42.152Z,1.43
2022-12-25T04:53:11.687Z,2.17
2022-12-25T04:55:41.427Z,1.20
2022-12-25T04:58:11.260Z,1.60
2022-12-25T05:00:41.373Z,1.80
2022-12-25T05:03:11.223Z,1.23
2022-12-25T05:05:42.051Z,1.50
2022-12-25T05:08:11.838Z,1.85
2022-12-25T05:10:42.235Z,1.30
2022-12-25T05:13:11.778Z,1.87
2022-12-25T05:15:43.487Z,2.27
2022-12-25T05:18:13.341Z,2.33
2022-12-25T05:20:43.168Z,2.80
2022-12-25T05:23:13.249Z,2.40
2022-12-25T05:25:43.206Z,3.47
2022-12-25T05:28:13.091Z,3.60
2022-12-25T05:30:42.977Z,5.07
2022-12-25T05:33:12.690Z,4.43
2022-12-25T05:35:42.479Z,3.87
2022-12-25T05:38:12.047Z,5.30
2022-12-25T05:40:41.864Z,4.70
2022-12-25T05:43:11.502Z,5.27
2022-12-25T05:45:41.247Z,4.73
2022-12-25T05:48:11.523Z,4.23
2022-12-25T05:50:41.615Z,5.37
2022-12-25T05:53:13.499Z,4.27
2022-12-25T05:55:44.776Z,4.10
2022-12-25T05:58:14.806Z,5.30
2022-12-25T06:00:45.349Z,5.53
2022-12-25T06:03:15.031Z,4.17
2022-12-25T06:05:44.873Z,4.97
2022-12-25T06:08:14.641Z,3.55
2022-12-25T06:10:44.847Z,4.00
2022-12-25T06:13:14.548Z,3.80
2022-12-25T06:15:44.423Z,2.77
2022-12-25T06:18:13.937Z,2.80
2022-12-25T06:20:43.736Z,3.07
2022-12-25T06:23:13.320Z,3.00
2022-12-25T06:25:43.551Z,3.22
2022-12-25T06:28:13.014Z,2.73
2022-12-25T06:30:42.796Z,3.60
2022-12-25T06:33:12.304Z,2.77
2022-12-25T06:35:42.099Z,3.33
2022-12-25T06:38:11.699Z,2.83
2022-12-25T06:40:41.489Z,3.43
2022-12-25T06:43:10.941Z,3.30
2022-12-25T06:45:40.776Z,2.90
2022-12-25T06:48:10.329Z,3.37
2022-12-25T06:50:44.228Z,3.07
2022-12-25T06:53:13.965Z,2.95
2022-12-25T06:55:43.830Z,3.00
2022-12-25T06:58:13.478Z,3.73
2022-12-25T07:00:43.314Z,3.03
2022-12-25T07:03:16.106Z,2.77
2022-12-25T07:05:47.389Z,2.67
2022-12-25T07:08:17.160Z,3.07
2022-12-25T07:10:46.959Z,3.00
2022-12-25T07:13:16.715Z,2.67
2022-12-25T07:15:46.505Z,2.30
2022-12-25T07:18:16.263Z,2.40
2022-12-25T07:20:46.063Z,3.07
2022-12-25T07:23:15.512Z,2.40
2022-12-25T07:25:46.826Z,3.10
2022-12-25T07:28:16.554Z,2.62
2022-12-25T07:30:46.332Z,3.40
2022-12-25T07:33:16.316Z,2.65
2022-12-25T07:35:46.222Z,3.37
2022-12-25T07:38:15.657Z,3.57
2022-12-25T07:40:47.069Z,3.60
2022-12-25T07:43:16.707Z,3.67
2022-12-25T07:45:47.134Z,3.90
2022-12-25T07:48:17.193Z,3.33
2022-12-25T07:50:46.937Z,3.37
2022-12-25T07:53:16.667Z,4.27
2022-12-25T07:55:46.445Z,3.83
2022-12-25T07:58:21.430Z,4.12
2022-12-25T08:00:47.740Z,5.43
2022-12-25T08:03:17.811Z,5.73
2022-12-25T08:05:47.703Z,4.47
2022-12-25T08:08:17.144Z,6.17
2022-12-25T08:10:48.733Z,5.60
2022-12-25T08:13:18.399Z,7.60
2022-12-25T08:15:48.344Z,9.27
2022-12-25T08:18:17.787Z,10.37
2022-12-25T08:20:47.578Z,9.47
2022-12-25T08:23:17.343Z,16.52
2022-12-25T08:25:47.132Z,14.60
2022-12-25T08:28:16.942Z,12.87
2022-12-25T08:30:46.767Z,11.97
2022-12-25T08:33:16.368Z,14.97
2022-12-25T08:35:46.126Z,11.53
2022-12-25T08:38:15.630Z,12.00
2022-12-25T08:40:45.398Z,12.47
2022-12-25T08:43:14.884Z,11.23
2022-12-25T08:45:46.195Z,10.80
2022-12-25T08:48:16.036Z,11.90
2022-12-25T08:50:50.466Z,12.23
2022-12-25T08:53:21.110Z,13.57
2022-12-25T08:55:52.860Z,16.07
2022-12-25T08:58:22.640Z,15.25
2022-12-25T09:00:52.583Z,15.27
2022-12-25T09:03:22.458Z,15.83
2022-12-25T09:05:53.373Z,14.13
2022-12-25T09:08:23.524Z,12.13
2022-12-25T09:10:53.318Z,9.83
2022-12-25T09:13:22.802Z,7.57
2022-12-25T09:15:52.604Z,5.97
2022-12-25T09:18:22.229Z,7.43
2022-12-25T09:21:02.204Z,6.53
2022-12-25T09:23:32.644Z,4.77
2022-12-25T09:26:04.001Z,4.77
2022-12-25T09:28:34.355Z,5.10
2022-12-25T09:31:04.437Z,4.30
2022-12-25T09:33:34.340Z,5.90
2022-12-25T09:36:07.087Z,4.57
2022-12-25T09:38:37.383Z,4.70
2022-12-25T09:41:10.114Z,5.30
2022-12-25T09:43:54.910Z,3.27
2022-12-25T09:46:33.200Z,3.40
2022-12-25T09:49:04.644Z,4.30
2022-12-25T09:51:37.725Z,4.37
2022-12-25T09:54:10.403Z,3.87
2022-12-25T09:56:40.215Z,4.07
2022-12-25T09:59:15.630Z,3.80
2022-12-25T10:02:21.877Z,3.17
2022-12-25T10:05:07.039Z,3.27
2022-12-25T10:07:57.669Z,4.00
2022-12-25T10:10:30.503Z,3.47
2022-12-25T10:13:06.391Z,4.60
2022-12-25T10:15:54.467Z,4.67
2022-12-25T10:18:45.433Z,3.60
2022-12-25T10:21:18.560Z,3.35
2022-12-25T10:24:00.425Z,3.50
2022-12-25T10:26:32.666Z,3.23
2022-12-25T10:29:17.037Z,3.13
2022-12-25T10:31:56.653Z,2.50
2022-12-25T10:34:27.820Z,4.13
2022-12-25T10:36:59.579Z,3.10
2022-12-25T10:39:29.589Z,2.20
2022-12-25T10:42:25.268Z,3.62
2022-12-25T10:44:57.788Z,3.65
2022-12-25T10:47:30.943Z,3.83
2022-12-25T10:50:02.281Z,3.37
2022-12-25T10:52:32.012Z,3.73
2022-12-25T10:55:04.849Z,4.57
2022-12-25T10:57:37.945Z,3.42
2022-12-25T11:00:10.569Z,4.03
2022-12-25T11:02:41.803Z,3.60
2022-12-25T11:05:17.422Z,3.67
2022-12-25T11:07:53.172Z,3.27
2022-12-25T11:10:28.744Z,3.80
2022-12-25T11:12:59.601Z,3.30
2022-12-25T11:15:43.986Z,3.27
2022-12-25T11:18:23.019Z,2.70
2022-12-25T11:21:04.814Z,2.50
2022-12-25T11:23:35.563Z,2.77
2022-12-25T11:26:09.174Z,3.18
2022-12-25T11:28:41.671Z,2.83
2022-12-25T11:31:20.319Z,3.34
2022-12-25T11:33:59.100Z,2.57
2022-12-25T11:36:36.481Z,3.30
2022-12-25T11:39:26.607Z,3.67
2022-12-25T11:42:02.088Z,2.70
2022-12-25T11:44:40.636Z,4.20
2022-12-25T11:47:21.876Z,2.93
2022-12-25T11:50:00.025Z,2.77
2022-12-25T11:52:28.869Z,3.30
2022-12-25T11:55:10.530Z,2.42
2022-12-25T11:57:42.519Z,3.42
2022-12-25T12:00:15.487Z,2.57
2022-12-25T12:02:58.676Z,2.33
2022-12-25T12:05:35.244Z,3.13
2022-12-25T12:08:07.483Z,3.08
2022-12-25T12:10:43.549Z,3.40
2022-12-25T12:13:34.056Z,2.87
2022-12-25T12:16:05.487Z,3.63
2022-12-25T12:18:36.267Z,3.30
2022-12-25T12:21:09.447Z,3.20
2022-12-25T12:24:07.740Z,2.77
2022-12-25T12:26:40.910Z,3.17
2022-12-25T12:29:28.450Z,2.67
2022-12-25T12:32:01.337Z,2.43
2022-12-25T12:34:34.517Z,3.05
2022-12-25T12:37:10.113Z,3.80
2022-12-25T12:39:41.442Z,3.97
2022-12-25T12:42:18.063Z,2.90
2022-12-25T12:44:50.158Z,2.73
2022-12-25T12:47:34.852Z,2.77
2022-12-25T12:50:06.865Z,2.77
2022-12-25T12:52:40.897Z,3.03
2022-12-25T12:55:16.796Z,2.53
2022-12-25T12:57:46.605Z,2.43
2022-12-25T13:00:19.220Z,3.00
2022-12-25T13:02:54.943Z,2.90
2022-12-25T13:05:34.856Z,2.87
2022-12-25T13:08:30.958Z,3.27
2022-12-25T13:11:13.140Z,2.65
2022-12-25T13:13:46.092Z,3.27
2022-12-25T13:16:24.540Z,2.80
2022-12-25T13:18:55.826Z,2.43
2022-12-25T13:21:30.648Z,2.93
2022-12-25T13:24:10.521Z,2.73
2022-12-25T13:26:40.845Z,3.40
2022-12-25T13:29:30.972Z,2.60
2022-12-25T13:32:03.053Z,2.83
2022-12-25T13:34:39.436Z,3.90
2022-12-25T13:37:15.040Z,4.47
2022-12-25T13:40:02.690Z,4.33
2022-12-25T13:42:39.901Z,3.97
2022-12-25T13:45:15.201Z,3.93
2022-12-25T13:47:51.437Z,4.28
2022-12-25T13:50:31.953Z,4.23
2022-12-25T13:53:16.172Z,4.57
2022-12-25T13:55:52.471Z,3.60
2022-12-25T13:58:30.848Z,4.37
2022-12-25T14:01:03.042Z,3.97
2022-12-25T14:03:46.012Z,3.50
2022-12-25T14:06:30.394Z,3.03
2022-12-25T14:09:00.643Z,4.13
2022-12-25T14:11:33.138Z,3.55
2022-12-25T14:14:14.861Z,3.67
2022-12-25T14:16:45.675Z,3.92
2022-12-25T14:19:27.526Z,4.72
2022-12-25T14:22:07.982Z,4.70
2022-12-25T14:24:38.705Z,4.27
2022-12-25T14:27:20.698Z,4.28
2022-12-25T14:29:52.828Z,5.03
2022-12-25T14:32:25.616Z,4.53
2022-12-25T14:35:03.478Z,5.53
2022-12-25T14:37:34.343Z,4.83
2022-12-25T14:40:07.641Z,6.10
2022-12-25T14:42:39.127Z,5.03
2022-12-25T14:45:30.088Z,5.47
2022-12-25T14:48:04.118Z,6.25
2022-12-25T14:50:39.994Z,7.33
2022-12-25T14:53:24.848Z,9.80
2022-12-25T14:55:56.223Z,8.20
2022-12-25T14:58:31.633Z,8.53
2022-12-25T15:01:04.021Z,10.57
2022-12-25T15:03:38.654Z,10.60
2022-12-25T15:06:20.187Z,12.73
2022-12-25T15:08:58.337Z,9.67
2022-12-25T15:11:28.540Z,10.63
2022-12-25T15:13:58.469Z,9.13
2022-12-25T15:16:31.351Z,8.00
2022-12-25T15:19:02.515Z,10.23
2022-12-25T15:21:34.418Z,9.78
2022-12-25T15:24:04.834Z,8.98
2022-12-25T15:26:34.584Z,9.13
2022-12-25T15:29:06.138Z,8.27
2022-12-25T15:31:38.712Z,11.30
2022-12-25T15:34:10.842Z,11.17
2022-12-25T15:36:40.892Z,9.58
2022-12-25T15:39:10.762Z,9.77
2022-12-25T15:41:58.439Z,10.27
2022-12-25T15:44:28.249Z,11.20
2022-12-25T15:46:58.893Z,10.50
2022-12-25T15:49:28.499Z,10.10
2022-12-25T15:51:58.334Z,11.13
2022-12-25T15:54:28.258Z,11.33
2022-12-25T15:57:01.453Z,12.03
2022-12-25T15:59:31.862Z,11.03
2022-12-25T16:02:03.288Z,10.50
2022-12-25T16:04:33.179Z,9.83
2022-12-25T16:07:03.085Z,12.83
2022-12-25T16:09:32.870Z,9.70
2022-12-25T16:12:02.626Z,9.93
2022-12-25T16:14:32.725Z,10.65
2022-12-25T16:17:02.574Z,11.40
2022-12-25T16:19:32.568Z,10.10
2022-12-25T16:22:02.226Z,9.07
2022-12-25T16:24:31.998Z,8.90
2022-12-25T16:27:01.777Z,9.50
2022-12-25T16:29:31.718Z,9.97
2022-12-25T16:32:01.791Z,9.20
2022-12-25T16:34:31.415Z,8.67
2022-12-25T16:37:01.179Z,9.17
2022-12-25T16:39:31.131Z,8.03
2022-12-25T16:42:01.300Z,7.23
2022-12-25T16:44:31.090Z,8.43
2022-12-25T16:47:01.417Z,6.92
2022-12-25T16:49:31.282Z,8.90
2022-12-25T16:52:01.331Z,8.08
2022-12-25T16:54:31.159Z,8.17
2022-12-25T16:57:00.900Z,7.27
2022-12-25T16:59:32.909Z,7.58
2022-12-25T17:02:02.822Z,8.30
2022-12-25T17:04:33.383Z,7.65
2022-12-25T17:07:03.201Z,8.77
2022-12-25T17:09:35.367Z,7.87
2022-12-25T17:12:05.341Z,8.30
2022-12-25T17:14:36.300Z,7.78
2022-12-25T17:17:06.598Z,8.85
2022-12-25T17:19:36.678Z,7.97
2022-12-25T17:22:07.385Z,9.00
2022-12-25T17:24:39.492Z,8.37
2022-12-25T17:27:10.480Z,8.80
2022-12-25T17:29:40.652Z,7.53
2022-12-25T17:32:11.666Z,9.37
2022-12-25T17:34:41.397Z,7.53
2022-12-25T17:37:10.951Z,10.30
2022-12-25T17:39:40.815Z,8.87
2022-12-25T17:42:10.298Z,7.58
2022-12-25T17:44:40.062Z,9.53
2022-12-25T17:47:09.929Z,8.40
2022-12-25T17:49:39.828Z,10.67
2022-12-25T17:52:09.395Z,8.97
2022-12-25T17:54:40.722Z,9.65
2022-12-25T17:57:10.646Z,8.30
2022-12-25T17:59:40.477Z,9.13
2022-12-25T18:02:11.850Z,8.53
2022-12-25T18:04:41.364Z,9.00
2022-12-25T18:07:10.979Z,9.88
2022-12-25T18:09:40.831Z,9.90
2022-12-25T18:12:10.611Z,8.97
2022-12-25T18:14:40.463Z,10.40
2022-12-25T18:17:10.429Z,10.03
2022-12-25T18:19:40.202Z,10.00
2022-12-25T18:22:09.726Z,12.30
2022-12-25T18:24:39.843Z,9.00
2022-12-25T18:27:09.642Z,9.30
2022-12-25T18:29:39.381Z,8.77
2022-12-25T18:32:08.990Z,10.60
2022-12-25T18:34:38.832Z,9.10
2022-12-25T18:37:08.372Z,9.30
2022-12-25T18:39:38.142Z,11.77
2022-12-25T18:42:25.150Z,9.73
2022-12-25T18:44:55.375Z,9.80
2022-12-25T18:47:25.175Z,10.23
2022-12-25T18:49:54.939Z,9.40
2022-12-25T18:52:48.166Z,10.00
2022-12-25T18:54:55.900Z,10.97
2022-12-25T18:57:26.464Z,10.23
2022-12-25T18:59:56.123Z,11.60
2022-12-25T19:02:26.327Z,10.98
2022-12-25T19:04:56.789Z,9.60
2022-12-25T19:07:27.804Z,10.80
2022-12-25T19:09:57.534Z,10.23
2022-12-25T19:12:27.494Z,10.40
2022-12-25T19:14:57.285Z,8.83
2022-12-25T19:17:31.880Z,8.73
2022-12-25T19:19:58.573Z,8.60
2022-12-25T19:22:28.545Z,8.20
2022-12-25T19:24:58.481Z,7.97
2022-12-25T19:27:28.270Z,7.93
2022-12-25T19:29:58.049Z,8.57
2022-12-25T19:32:28.105Z,9.13
2022-12-25T19:34:57.889Z,9.40
2022-12-25T19:37:27.693Z,8.80
2022-12-25T19:39:57.642Z,10.17
2022-12-25T19:42:27.566Z,10.27
2022-12-25T19:44:57.360Z,8.83
2022-12-25T19:47:27.169Z,9.17
2022-12-25T19:50:02.604Z,9.53
2022-12-25T19:52:30.079Z,9.00
2022-12-25T19:54:59.981Z,9.37
2022-12-25T19:57:29.684Z,9.97
2022-12-25T19:59:59.466Z,9.30
2022-12-25T20:02:29.674Z,10.07
2022-12-25T20:04:59.841Z,8.73
2022-12-25T20:07:29.697Z,8.80
2022-12-25T20:09:59.570Z,9.70
2022-12-25T20:12:29.324Z,7.43
2022-12-25T20:14:59.125Z,10.33
2022-12-25T20:17:28.943Z,8.47
2022-12-25T20:19:59.028Z,9.63
2022-12-25T20:22:28.794Z,7.17
2022-12-25T20:24:59.365Z,7.70
2022-12-25T20:27:29.108Z,7.43
2022-12-25T20:29:58.955Z,7.63
2022-12-25T20:32:30.315Z,7.83
2022-12-25T20:37:28.435Z,8.20
2022-12-25T20:39:58.467Z,8.07
2022-12-25T20:42:28.327Z,7.97
2022-12-25T20:44:58.075Z,8.40
2022-12-25T20:47:27.872Z,9.20
2022-12-25T20:49:59.457Z,8.73
2022-12-25T20:52:29.538Z,8.07
2022-12-25T20:54:59.417Z,8.80
2022-12-25T20:57:29.157Z,7.97
2022-12-25T20:59:59.351Z,8.03
2022-12-25T21:02:35.875Z,8.73
2022-12-25T21:05:01.154Z,8.53
2022-12-25T21:07:30.971Z,9.10
2022-12-25T21:10:00.760Z,10.20
2022-12-25T21:12:30.953Z,8.65
2022-12-25T21:15:00.788Z,7.60
2022-12-25T21:17:30.556Z,7.90
2022-12-25T21:20:00.369Z,8.70
2022-12-25T21:22:30.539Z,7.78
2022-12-25T21:25:00.295Z,6.93
2022-12-25T21:27:33.011Z,7.10
2022-12-25T21:30:15.327Z,6.83
2022-12-25T21:32:52.320Z,7.93
2022-12-25T21:35:22.202Z,7.23
2022-12-25T21:37:52.115Z,6.90
2022-12-25T21:40:21.639Z,6.90
2022-12-25T21:42:53.229Z,7.17
2022-12-25T21:45:23.116Z,6.47
2022-12-25T21:48:01.411Z,6.43
2022-12-25T21:50:42.251Z,5.77
2022-12-25T21:53:16.936Z,6.22
2022-12-25T21:56:00.813Z,6.93
2022-12-25T21:58:30.954Z,6.85
2022-12-25T22:01:03.392Z,7.07
2022-12-25T22:03:33.308Z,6.50
2022-12-25T22:06:21.762Z,7.20
2022-12-25T22:08:51.665Z,6.53
2022-12-25T22:11:39.063Z,7.23
2022-12-25T22:14:51.008Z,7.30
2022-12-25T22:17:27.080Z,7.17
2022-12-25T22:19:57.316Z,6.47
2022-12-25T22:22:30.131Z,7.08
2022-12-25T22:25:02.483Z,8.13
2022-12-25T22:27:37.942Z,8.60
2022-12-25T22:30:10.482Z,7.87
2022-12-25T22:32:41.021Z,6.53
2022-12-25T22:35:12.577Z,7.53
2022-12-25T22:37:43.782Z,6.97
2022-12-25T22:40:16.402Z,8.35
2022-12-25T22:42:46.591Z,7.73
2022-12-25T22:45:16.512Z,9.05
2022-12-25T22:47:46.295Z,7.27
2022-12-25T22:50:16.788Z,7.60
2022-12-25T22:52:47.073Z,7.50
2022-12-25T22:55:19.909Z,6.72
2022-12-25T22:57:50.360Z,5.80
2022-12-25T23:00:19.818Z,6.27
2022-12-25T23:02:49.823Z,6.20
2022-12-25T23:05:19.788Z,6.70
2022-12-25T23:07:49.600Z,6.87
2022-12-25T23:10:19.178Z,5.43
2022-12-25T23:13:06.288Z,5.80
2022-12-25T23:15:36.138Z,6.20
2022-12-25T23:18:24.144Z,5.67
2022-12-25T23:21:11.591Z,6.47
2022-12-25T23:23:59.361Z,6.42
2022-12-25T23:26:29.634Z,6.47
2022-12-25T23:29:17.019Z,7.70
2022-12-25T23:31:49.284Z,6.17
2022-12-25T23:34:19.132Z,6.78
2022-12-25T23:36:48.972Z,6.50
2022-12-25T23:39:18.747Z,6.80
2022-12-25T23:41:49.610Z,6.62
2022-12-25T23:44:19.134Z,7.03
2022-12-25T23:46:52.407Z,6.27
2022-12-25T23:49:20.832Z,5.80
2022-12-25T23:51:50.881Z,7.00
2022-12-25T23:54:23.901Z,9.23
2022-12-25T23:56:54.312Z,8.87
2022-12-25T23:59:24.148Z,6.10
